Flight Track Log - Related Links

Times and Time Zones

All times are in EDT time to prevent confusion due to time zone crossing. See the RPA3392 flight status page for this flight to view local times or setup timezone preferences in your user account.

Time Position Orientation Groundspeed Altitude Reporting Facility
EDT Latitude Longitude Course Direction KTS MPH feet Rate Location/Type
Mon 10:30:00 PM 38.8833 -77.0500 83° East 154 177 1,800  Level Potomac TRACON
Mon 10:32:00 PM 39.0430 -76.4925 63° Northeast  Level FlightAware Approximate
Mon 10:32:27 PM 38.9892 -77.1111 336° Northwest 195 224 7,300  Level Washington Center
Mon 10:33:00 PM 39.0988 -76.3584 61° Northeast  Level FlightAware Approximate
Mon 10:33:27 PM 39.0092 -77.0075 76° East 181 208 10,200  Level Washington Center
Mon 10:34:00 PM 39.1425 -76.2242 38° Northeast  Level FlightAware Approximate
Mon 10:34:25 PM 39.0292 -76.9008 76° East 247 284 13,500  Level Washington Center
Mon 10:35:00 PM 39.1639 -76.0778 83° East  Level FlightAware Approximate
Mon 10:35:24 PM 39.0492 -76.7892 77° East 281 323 15,200  Level Washington Center
Mon 10:36:25 PM 39.0711 -76.6636 77° East 314 361 18,000 2,579 Climbing Washington Center
Mon 10:37:25 PM 39.0806 -76.5356 85° East 339 390 20,400 2,300 Climbing Washington Center
Mon 10:38:25 PM 39.0775 -76.3992 92° East 361 415 22,600 1,279 Climbing Washington Center
Mon 10:39:27 PM 39.0886 -76.2628 84° East 378 435 23,000 200 Climbing Washington Center
Mon 10:40:25 PM 39.1269 -76.1319 69° East 378 435 23,000  Level Washington Center
Mon 10:41:25 PM 39.1606 -76.0039 71° East 378 435 23,000  Level Washington Center
Mon 10:42:26 PM 39.1986 -75.8756 69° East 378 435 23,000 639 Level Washington Center
Mon 10:43:27 PM 39.2717 -75.7792 46° Northeast 368 423 24,300 1,361 Climbing Washington Center
Mon 10:44:25 PM 39.3489 -75.6800 45° Northeast 374 430 25,700 1,513 Climbing Washington Center
Mon 10:45:26 PM 39.4303 -75.5756 45° Northeast 385 443 27,300 1,388 Climbing Washington Center
Mon 10:46:26 PM 39.5114 -75.4678 46° Northeast 403 464 28,500 850 Climbing Washington Center
Mon 10:47:26 PM 39.5967 -75.3572 45° Northeast 413 475 29,000 250 Climbing Washington Center
Mon 10:48:26 PM 39.6797 -75.2436 46° Northeast 418 481 29,000  Level Washington Center
Mon 10:49:17 PM 39.7489 -75.1475 47° Northeast 425 489 29,000  Level New York Center
Mon 10:50:18 PM 39.8303 -75.0311 48° Northeast 449 517 29,000  Level New York Center
Mon 10:51:17 PM 39.9117 -74.9142 48° Northeast 444 511 29,000  Level New York Center
Mon 10:52:18 PM 39.9992 -74.7947 46° Northeast 444 511 29,000  Level New York Center
Mon 10:53:17 PM 40.0908 -74.6725 46° Northeast 455 524 29,000  Level New York Center
Mon 10:54:17 PM 40.1883 -74.5558 42° Northeast 467 537 29,000 -99 Level New York Center
Mon 10:55:18 PM 40.2900 -74.4389 41° Northeast 475 547 28,800 -600 Descending New York Center
Mon 10:56:17 PM 40.3850 -74.3322 41° Northeast 470 541 27,800 -1,154 Descending New York Center
Mon 10:58:20 PM 40.5769 -74.1069 42° Northeast 465 535 25,300 -918 Descending Boston Center
Mon 10:59:20 PM 40.6808 -73.9917 40° Northeast 458 527 25,000 -150 Descending Boston Center
Mon 11:00:20 PM 40.7719 -73.8844 42° Northeast 447 514 25,000  Level Boston Center
Mon 11:01:20 PM 40.8606 -73.7819 41° Northeast 429 494 25,000  Level Boston Center
Mon 11:02:20 PM 40.9697 -73.7319 19° North 417 480 25,000  Level Boston Center
Mon 11:03:20 PM 41.0842 -73.7372 358° North 399 459 25,000  Level Boston Center
Mon 11:04:20 PM 41.1986 -73.7422 358° North 399 459 25,000  Level Boston Center
Mon 11:05:20 PM 41.3111 -73.7472 358° North 404 465 25,000  Level Boston Center
Mon 11:06:20 PM 41.4194 -73.7494 359° North 399 459 25,000 -900 Level Boston Center
Mon 11:07:20 PM 41.5258 -73.7544 358° North 389 448 23,200 -1,950 Descending Boston Center
Mon 11:08:20 PM 41.6236 -73.7564 359° North 368 423 21,100 -2,050 Descending Boston Center
Mon 11:09:20 PM 41.7133 -73.7611 358° North 343 395 19,100 -1,850 Descending Boston Center
Mon 11:10:20 PM 41.8008 -73.7656 358° North 315 362 17,400 -1,864 Descending Boston Center
Mon 11:11:32 PM 41.9111 -73.7736 357° North 339 390 15,000 -2,000 Descending Boston Center
Mon 11:12:26 PM 41.9967 -73.7753 359° North 334 384 13,200 -1,983 Descending Boston Center
Mon 11:13:27 PM 42.0881 -73.7800 358° North 327 376 11,200 -1,033 Descending Boston Center
Mon 11:14:28 PM 42.1758 -73.7819 359° North 319 367 11,100 -298 Descending Boston Center
Mon 11:15:28 PM 42.2547 -73.7864 358° North 269 310 10,600 -992 Descending Boston Center
Mon 11:16:29 PM 42.3214 -73.7908 357° North 230 265 9,100 -1,537 Descending Boston Center
Mon 11:17:29 PM 42.3883 -73.7894 North 234 269 7,500 -1,488 Descending Boston Center
Mon 11:18:30 PM 42.4569 -73.7964 356° North 227 261 6,100 -1,328 Descending Boston Center
Mon 11:19:31 PM 42.5175 -73.7950 North 219 252 4,800 -1,190 Descending Boston Center
Mon 11:20:31 PM 42.5714 -73.8017 355° North 197 227 3,700 -1,041 Descending Boston Center
Mon 11:21:32 PM 42.6194 -73.8000 North 165 190 2,700 -885 Descending Boston Center
Mon 11:22:33 PM 42.6611 -73.8036 356° North 144 166 1,900 -787 Descending Boston Center

Login

Don't have an account? Register now (free) for customized features, flight alerts, and more!